WC StCyr

Date de la prise de vue : 07/02/2023 18:25:58
Et voilĂ  le METAR et le TAF :
2023/02/07 17:00 LFPN 071700Z AUTO 07004KT CAVOK 04/M03 Q1036 NOSIG
2023/02/07 15:46 TAF LFPN 071400Z 0715/0724 07006KT CAVOK